sensor_id;sensor_type;location;lat;lon;timestamp;P1;durP1;ratioP1;P2;durP2;ratioP2
11141;SDS011;5625;50.122;19.864;2023-04-24T00:00:38;9.97;;;8.47;;
11141;SDS011;5625;50.122;19.864;2023-04-24T00:03:08;11.70;;;9.23;;
11141;SDS011;5625;50.122;19.864;2023-04-24T00:05:37;12.07;;;9.87;;
11141;SDS011;5625;50.122;19.864;2023-04-24T00:08:06;11.10;;;9.13;;
11141;SDS011;5625;50.122;19.864;2023-04-24T00:10:34;11.57;;;9.97;;
11141;SDS011;5625;50.122;19.864;2023-04-24T00:13:02;14.33;;;9.77;;
11141;SDS011;5625;50.122;19.864;2023-04-24T00:15:30;12.80;;;10.07;;
11141;SDS011;5625;50.122;19.864;2023-04-24T00:17:59;15.37;;;10.20;;
11141;SDS011;5625;50.122;19.864;2023-04-24T00:20:30;13.60;;;9.43;;
11141;SDS011;5625;50.122;19.864;2023-04-24T00:22:58;11.40;;;8.87;;
11141;SDS011;5625;50.122;19.864;2023-04-24T00:25:26;12.37;;;9.43;;
11141;SDS011;5625;50.122;19.864;2023-04-24T00:27:54;9.63;;;8.60;;
11141;SDS011;5625;50.122;19.864;2023-04-24T00:30:25;11.00;;;8.50;;
11141;SDS011;5625;50.122;19.864;2023-04-24T00:32:53;12.10;;;8.50;;
11141;SDS011;5625;50.122;19.864;2023-04-24T00:35:21;13.60;;;8.80;;
11141;SDS011;5625;50.122;19.864;2023-04-24T00:37:50;9.50;;;8.50;;
11141;SDS011;5625;50.122;19.864;2023-04-24T00:40:18;11.07;;;8.27;;
11141;SDS011;5625;50.122;19.864;2023-04-24T00:42:47;11.73;;;8.63;;
11141;SDS011;5625;50.122;19.864;2023-04-24T00:45:15;10.47;;;7.90;;
11141;SDS011;5625;50.122;19.864;2023-04-24T00:47:44;12.33;;;8.23;;
11141;SDS011;5625;50.122;19.864;2023-04-24T00:50:14;9.37;;;7.90;;
11141;SDS011;5625;50.122;19.864;2023-04-24T00:52:43;11.53;;;8.77;;
11141;SDS011;5625;50.122;19.864;2023-04-24T00:55:12;10.77;;;9.20;;
11141;SDS011;5625;50.122;19.864;2023-04-24T00:57:41;12.17;;;9.53;;
11141;SDS011;5625;50.122;19.864;2023-04-24T01:00:10;11.87;;;9.17;;
11141;SDS011;5625;50.122;19.864;2023-04-24T01:02:39;12.13;;;9.47;;
11141;SDS011;5625;50.122;19.864;2023-04-24T01:05:10;11.30;;;8.57;;
11141;SDS011;5625;50.122;19.864;2023-04-24T01:07:39;10.13;;;8.70;;
11141;SDS011;5625;50.122;19.864;2023-04-24T01:10:13;11.97;;;8.80;;
11141;SDS011;5625;50.122;19.864;2023-04-24T01:12:43;9.83;;;8.20;;
11141;SDS011;5625;50.122;19.864;2023-04-24T01:15:11;9.50;;;8.50;;
11141;SDS011;5625;50.122;19.864;2023-04-24T01:17:39;10.33;;;9.00;;
11141;SDS011;5625;50.122;19.864;2023-04-24T01:20:07;10.00;;;8.27;;
11141;SDS011;5625;50.122;19.864;2023-04-24T01:22:38;12.90;;;8.83;;
11141;SDS011;5625;50.122;19.864;2023-04-24T01:25:07;10.40;;;8.10;;
11141;SDS011;5625;50.122;19.864;2023-04-24T01:27:35;9.23;;;7.87;;
11141;SDS011;5625;50.122;19.864;2023-04-24T01:30:04;11.30;;;7.87;;
11141;SDS011;5625;50.122;19.864;2023-04-24T01:32:33;10.90;;;8.53;;
11141;SDS011;5625;50.122;19.864;2023-04-24T01:35:02;12.27;;;8.10;;
11141;SDS011;5625;50.122;19.864;2023-04-24T01:37:31;9.33;;;7.60;;
11141;SDS011;5625;50.122;19.864;2023-04-24T01:40:00;9.20;;;7.30;;
11141;SDS011;5625;50.122;19.864;2023-04-24T01:42:30;7.83;;;6.77;;
11141;SDS011;5625;50.122;19.864;2023-04-24T01:44:58;9.97;;;7.07;;
11141;SDS011;5625;50.122;19.864;2023-04-24T01:47:27;7.60;;;6.80;;
11141;SDS011;5625;50.122;19.864;2023-04-24T01:49:57;10.53;;;7.23;;
11141;SDS011;5625;50.122;19.864;2023-04-24T01:52:25;7.87;;;6.83;;
11141;SDS011;5625;50.122;19.864;2023-04-24T01:54:55;8.90;;;6.93;;
11141;SDS011;5625;50.122;19.864;2023-04-24T01:57:24;9.17;;;7.00;;
11141;SDS011;5625;50.122;19.864;2023-04-24T01:59:52;7.40;;;6.60;;
11141;SDS011;5625;50.122;19.864;2023-04-24T02:02:20;7.83;;;6.87;;
11141;SDS011;5625;50.122;19.864;2023-04-24T02:04:50;6.60;;;6.00;;
11141;SDS011;5625;50.122;19.864;2023-04-24T02:07:18;8.70;;;6.93;;
11141;SDS011;5625;50.122;19.864;2023-04-24T02:09:46;7.23;;;6.17;;
11141;SDS011;5625;50.122;19.864;2023-04-24T02:12:14;7.87;;;6.10;;
11141;SDS011;5625;50.122;19.864;2023-04-24T02:14:44;7.17;;;6.47;;
11141;SDS011;5625;50.122;19.864;2023-04-24T02:17:12;9.47;;;6.70;;
11141;SDS011;5625;50.122;19.864;2023-04-24T02:19:42;6.97;;;6.30;;
11141;SDS011;5625;50.122;19.864;2023-04-24T02:22:10;8.57;;;6.33;;
11141;SDS011;5625;50.122;19.864;2023-04-24T02:24:38;7.83;;;5.87;;
11141;SDS011;5625;50.122;19.864;2023-04-24T02:27:06;8.13;;;6.43;;
11141;SDS011;5625;50.122;19.864;2023-04-24T02:29:34;6.80;;;6.10;;
11141;SDS011;5625;50.122;19.864;2023-04-24T02:32:04;9.50;;;7.23;;
11141;SDS011;5625;50.122;19.864;2023-04-24T02:34:32;7.00;;;6.30;;
11141;SDS011;5625;50.122;19.864;2023-04-24T02:37:00;8.27;;;6.60;;
11141;SDS011;5625;50.122;19.864;2023-04-24T02:39:28;7.90;;;7.07;;
11141;SDS011;5625;50.122;19.864;2023-04-24T02:41:56;10.50;;;7.43;;
11141;SDS011;5625;50.122;19.864;2023-04-24T02:44:24;7.80;;;7.00;;
11141;SDS011;5625;50.122;19.864;2023-04-24T02:46:52;8.23;;;7.40;;
11141;SDS011;5625;50.122;19.864;2023-04-24T02:49:21;7.43;;;6.63;;
11141;SDS011;5625;50.122;19.864;2023-04-24T02:51:49;9.00;;;7.27;;
11141;SDS011;5625;50.122;19.864;2023-04-24T02:54:17;7.87;;;6.67;;
11141;SDS011;5625;50.122;19.864;2023-04-24T02:56:45;7.70;;;6.67;;
11141;SDS011;5625;50.122;19.864;2023-04-24T02:59:13;8.23;;;6.87;;
11141;SDS011;5625;50.122;19.864;2023-04-24T03:01:41;6.80;;;6.03;;
11141;SDS011;5625;50.122;19.864;2023-04-24T03:04:09;8.60;;;6.73;;
11141;SDS011;5625;50.122;19.864;2023-04-24T03:06:39;7.80;;;6.30;;
11141;SDS011;5625;50.122;19.864;2023-04-24T03:09:07;8.20;;;6.10;;
11141;SDS011;5625;50.122;19.864;2023-04-24T03:11:35;8.97;;;6.10;;
11141;SDS011;5625;50.122;19.864;2023-04-24T03:14:03;7.07;;;6.10;;
11141;SDS011;5625;50.122;19.864;2023-04-24T03:16:31;9.30;;;6.93;;
11141;SDS011;5625;50.122;19.864;2023-04-24T03:19:00;6.83;;;6.13;;
11141;SDS011;5625;50.122;19.864;2023-04-24T03:21:28;6.40;;;5.73;;
11141;SDS011;5625;50.122;19.864;2023-04-24T03:23:58;7.27;;;5.40;;
11141;SDS011;5625;50.122;19.864;2023-04-24T03:26:26;6.03;;;5.43;;
11141;SDS011;5625;50.122;19.864;2023-04-24T03:28:54;6.37;;;5.47;;
11141;SDS011;5625;50.122;19.864;2023-04-24T03:31:22;5.90;;;5.17;;
11141;SDS011;5625;50.122;19.864;2023-04-24T03:33:50;6.00;;;5.40;;
11141;SDS011;5625;50.122;19.864;2023-04-24T03:36:18;6.70;;;5.97;;
11141;SDS011;5625;50.122;19.864;2023-04-24T03:38:48;9.13;;;5.60;;
11141;SDS011;5625;50.122;19.864;2023-04-24T03:41:17;7.23;;;5.43;;
11141;SDS011;5625;50.122;19.864;2023-04-24T03:43:46;7.13;;;5.40;;
11141;SDS011;5625;50.122;19.864;2023-04-24T03:46:14;8.37;;;5.37;;
11141;SDS011;5625;50.122;19.864;2023-04-24T03:48:42;5.70;;;4.90;;
11141;SDS011;5625;50.122;19.864;2023-04-24T03:51:10;7.60;;;5.83;;
11141;SDS011;5625;50.122;19.864;2023-04-24T03:53:38;5.43;;;4.83;;
11141;SDS011;5625;50.122;19.864;2023-04-24T03:56:06;7.27;;;5.57;;
11141;SDS011;5625;50.122;19.864;2023-04-24T03:58:35;6.10;;;4.73;;
11141;SDS011;5625;50.122;19.864;2023-04-24T04:01:03;7.20;;;5.27;;
11141;SDS011;5625;50.122;19.864;2023-04-24T04:03:31;7.53;;;5.80;;
11141;SDS011;5625;50.122;19.864;2023-04-24T04:06:00;8.57;;;5.77;;
11141;SDS011;5625;50.122;19.864;2023-04-24T04:08:28;7.60;;;5.80;;
11141;SDS011;5625;50.122;19.864;2023-04-24T04:10:56;5.77;;;5.27;;
11141;SDS011;5625;50.122;19.864;2023-04-24T04:13:24;7.17;;;5.30;;
11141;SDS011;5625;50.122;19.864;2023-04-24T04:15:53;6.97;;;5.50;;
11141;SDS011;5625;50.122;19.864;2023-04-24T04:18:22;6.40;;;5.73;;
11141;SDS011;5625;50.122;19.864;2023-04-24T04:20:50;6.80;;;5.67;;
11141;SDS011;5625;50.122;19.864;2023-04-24T04:23:18;9.53;;;5.27;;
11141;SDS011;5625;50.122;19.864;2023-04-24T04:25:47;6.60;;;5.00;;
11141;SDS011;5625;50.122;19.864;2023-04-24T04:28:16;8.57;;;6.43;;
11141;SDS011;5625;50.122;19.864;2023-04-24T04:30:46;7.57;;;5.73;;
11141;SDS011;5625;50.122;19.864;2023-04-24T04:33:15;8.40;;;5.27;;
11141;SDS011;5625;50.122;19.864;2023-04-24T04:35:44;7.23;;;5.60;;
11141;SDS011;5625;50.122;19.864;2023-04-24T04:38:14;7.17;;;5.50;;
11141;SDS011;5625;50.122;19.864;2023-04-24T04:40:43;8.63;;;5.57;;
11141;SDS011;5625;50.122;19.864;2023-04-24T04:43:11;7.40;;;5.37;;
11141;SDS011;5625;50.122;19.864;2023-04-24T04:45:41;7.40;;;5.30;;
11141;SDS011;5625;50.122;19.864;2023-04-24T04:48:09;7.87;;;5.27;;
11141;SDS011;5625;50.122;19.864;2023-04-24T04:50:41;6.00;;;5.07;;
11141;SDS011;5625;50.122;19.864;2023-04-24T04:53:09;6.37;;;5.50;;
11141;SDS011;5625;50.122;19.864;2023-04-24T04:55:37;6.50;;;4.97;;
11141;SDS011;5625;50.122;19.864;2023-04-24T04:58:05;7.47;;;5.37;;
11141;SDS011;5625;50.122;19.864;2023-04-24T05:00:33;5.87;;;5.27;;
11141;SDS011;5625;50.122;19.864;2023-04-24T05:03:03;7.73;;;5.10;;
11141;SDS011;5625;50.122;19.864;2023-04-24T05:05:48;9.87;;;5.30;;
11141;SDS011;5625;50.122;19.864;2023-04-24T05:08:16;11.57;;;5.93;;
11141;SDS011;5625;50.122;19.864;2023-04-24T05:10:52;7.73;;;5.30;;
11141;SDS011;5625;50.122;19.864;2023-04-24T05:13:21;8.77;;;5.57;;
11141;SDS011;5625;50.122;19.864;2023-04-24T05:16:04;6.13;;;5.00;;
11141;SDS011;5625;50.122;19.864;2023-04-24T05:18:33;9.67;;;5.63;;
11141;SDS011;5625;50.122;19.864;2023-04-24T05:21:02;5.90;;;5.30;;
11141;SDS011;5625;50.122;19.864;2023-04-24T05:23:30;6.83;;;5.53;;
11141;SDS011;5625;50.122;19.864;2023-04-24T05:25:58;6.70;;;5.57;;
11141;SDS011;5625;50.122;19.864;2023-04-24T05:28:26;7.67;;;5.60;;
11141;SDS011;5625;50.122;19.864;2023-04-24T05:30:55;9.33;;;6.10;;
11141;SDS011;5625;50.122;19.864;2023-04-24T05:33:24;7.33;;;5.27;;
11141;SDS011;5625;50.122;19.864;2023-04-24T05:35:53;8.90;;;5.83;;
11141;SDS011;5625;50.122;19.864;2023-04-24T05:38:24;8.83;;;5.47;;
11141;SDS011;5625;50.122;19.864;2023-04-24T05:40:52;8.77;;;5.90;;
11141;SDS011;5625;50.122;19.864;2023-04-24T05:43:20;9.97;;;5.97;;
11141;SDS011;5625;50.122;19.864;2023-04-24T05:45:48;9.27;;;6.30;;
11141;SDS011;5625;50.122;19.864;2023-04-24T05:48:16;9.27;;;6.73;;
11141;SDS011;5625;50.122;19.864;2023-04-24T05:50:44;9.77;;;6.17;;
11141;SDS011;5625;50.122;19.864;2023-04-24T05:53:14;10.57;;;6.50;;
11141;SDS011;5625;50.122;19.864;2023-04-24T05:55:43;8.77;;;6.10;;
11141;SDS011;5625;50.122;19.864;2023-04-24T05:58:12;10.07;;;6.50;;
11141;SDS011;5625;50.122;19.864;2023-04-24T06:00:40;7.53;;;5.83;;
11141;SDS011;5625;50.122;19.864;2023-04-24T06:03:10;9.27;;;5.70;;
11141;SDS011;5625;50.122;19.864;2023-04-24T06:05:39;6.40;;;5.00;;
11141;SDS011;5625;50.122;19.864;2023-04-24T06:08:07;10.37;;;5.33;;
11141;SDS011;5625;50.122;19.864;2023-04-24T06:10:38;8.77;;;5.03;;
11141;SDS011;5625;50.122;19.864;2023-04-24T06:13:07;9.53;;;5.03;;
11141;SDS011;5625;50.122;19.864;2023-04-24T06:15:35;9.17;;;5.03;;
11141;SDS011;5625;50.122;19.864;2023-04-24T06:18:04;6.97;;;4.70;;
11141;SDS011;5625;50.122;19.864;2023-04-24T06:20:32;7.80;;;4.30;;
11141;SDS011;5625;50.122;19.864;2023-04-24T06:23:00;8.53;;;4.27;;
11141;SDS011;5625;50.122;19.864;2023-04-24T06:25:29;9.30;;;4.00;;
11141;SDS011;5625;50.122;19.864;2023-04-24T06:27:57;8.67;;;4.07;;
11141;SDS011;5625;50.122;19.864;2023-04-24T06:30:26;5.30;;;4.10;;
11141;SDS011;5625;50.122;19.864;2023-04-24T06:32:55;8.63;;;4.37;;
11141;SDS011;5625;50.122;19.864;2023-04-24T06:35:38;9.10;;;4.50;;
11141;SDS011;5625;50.122;19.864;2023-04-24T06:38:06;6.67;;;4.20;;
11141;SDS011;5625;50.122;19.864;2023-04-24T06:40:34;9.13;;;4.40;;
11141;SDS011;5625;50.122;19.864;2023-04-24T06:43:03;8.27;;;4.30;;
11141;SDS011;5625;50.122;19.864;2023-04-24T06:45:36;15.17;;;4.47;;
11141;SDS011;5625;50.122;19.864;2023-04-24T06:48:05;13.77;;;3.93;;
11141;SDS011;5625;50.122;19.864;2023-04-24T06:50:33;16.03;;;4.50;;
11141;SDS011;5625;50.122;19.864;2023-04-24T06:53:02;14.10;;;4.30;;
11141;SDS011;5625;50.122;19.864;2023-04-24T06:55:31;12.67;;;4.23;;
11141;SDS011;5625;50.122;19.864;2023-04-24T06:57:59;7.83;;;3.80;;
11141;SDS011;5625;50.122;19.864;2023-04-24T07:00:27;13.47;;;4.20;;
11141;SDS011;5625;50.122;19.864;2023-04-24T07:02:57;14.80;;;4.57;;
11141;SDS011;5625;50.122;19.864;2023-04-24T07:05:26;12.17;;;4.10;;
11141;SDS011;5625;50.122;19.864;2023-04-24T07:07:54;8.33;;;4.17;;
11141;SDS011;5625;50.122;19.864;2023-04-24T07:10:24;20.30;;;5.30;;
11141;SDS011;5625;50.122;19.864;2023-04-24T07:12:54;10.73;;;4.03;;
11141;SDS011;5625;50.122;19.864;2023-04-24T07:15:25;10.23;;;4.53;;
11141;SDS011;5625;50.122;19.864;2023-04-24T07:17:53;7.37;;;4.17;;
11141;SDS011;5625;50.122;19.864;2023-04-24T07:20:26;11.57;;;4.07;;
11141;SDS011;5625;50.122;19.864;2023-04-24T07:22:54;11.93;;;4.33;;
11141;SDS011;5625;50.122;19.864;2023-04-24T07:25:22;13.50;;;4.10;;
11141;SDS011;5625;50.122;19.864;2023-04-24T07:27:50;10.93;;;4.13;;
11141;SDS011;5625;50.122;19.864;2023-04-24T07:30:19;9.55;;;4.30;;
11141;SDS011;5625;50.122;19.864;2023-04-24T07:32:47;11.73;;;4.68;;
11141;SDS011;5625;50.122;19.864;2023-04-24T07:35:15;10.07;;;4.33;;
11141;SDS011;5625;50.122;19.864;2023-04-24T07:37:45;8.68;;;4.30;;
11141;SDS011;5625;50.122;19.864;2023-04-24T07:40:13;9.85;;;4.43;;
11141;SDS011;5625;50.122;19.864;2023-04-24T07:42:42;8.57;;;3.75;;
11141;SDS011;5625;50.122;19.864;2023-04-24T07:45:11;11.85;;;4.60;;
11141;SDS011;5625;50.122;19.864;2023-04-24T07:47:39;7.95;;;4.07;;
11141;SDS011;5625;50.122;19.864;2023-04-24T07:50:10;14.18;;;4.10;;
11141;SDS011;5625;50.122;19.864;2023-04-24T07:52:38;7.28;;;4.13;;
11141;SDS011;5625;50.122;19.864;2023-04-24T07:55:08;8.50;;;4.28;;
11141;SDS011;5625;50.122;19.864;2023-04-24T07:57:36;7.95;;;3.53;;
11141;SDS011;5625;50.122;19.864;2023-04-24T08:00:07;9.10;;;3.45;;
11141;SDS011;5625;50.122;19.864;2023-04-24T08:02:36;8.43;;;4.03;;
11141;SDS011;5625;50.122;19.864;2023-04-24T08:05:05;8.13;;;3.30;;
11141;SDS011;5625;50.122;19.864;2023-04-24T08:07:34;7.32;;;3.80;;
11141;SDS011;5625;50.122;19.864;2023-04-24T08:10:02;5.72;;;3.55;;
11141;SDS011;5625;50.122;19.864;2023-04-24T08:12:32;11.98;;;3.45;;
11141;SDS011;5625;50.122;19.864;2023-04-24T08:15:02;7.47;;;3.20;;
11141;SDS011;5625;50.122;19.864;2023-04-24T08:17:31;2.92;;;2.70;;
11141;SDS011;5625;50.122;19.864;2023-04-24T08:19:59;4.53;;;2.90;;
11141;SDS011;5625;50.122;19.864;2023-04-24T08:22:28;5.30;;;2.92;;
11141;SDS011;5625;50.122;19.864;2023-04-24T08:24:56;3.88;;;3.17;;
11141;SDS011;5625;50.122;19.864;2023-04-24T08:27:27;3.78;;;3.22;;
11141;SDS011;5625;50.122;19.864;2023-04-24T08:29:57;5.30;;;3.33;;
11141;SDS011;5625;50.122;19.864;2023-04-24T08:32:26;9.18;;;2.60;;
11141;SDS011;5625;50.122;19.864;2023-04-24T08:34:55;6.60;;;2.92;;
11141;SDS011;5625;50.122;19.864;2023-04-24T08:37:24;4.78;;;2.88;;
11141;SDS011;5625;50.122;19.864;2023-04-24T08:39:53;3.80;;;2.92;;
11141;SDS011;5625;50.122;19.864;2023-04-24T08:42:21;6.35;;;3.20;;
11141;SDS011;5625;50.122;19.864;2023-04-24T08:44:53;5.20;;;2.92;;
11141;SDS011;5625;50.122;19.864;2023-04-24T08:47:27;3.75;;;2.97;;
11141;SDS011;5625;50.122;19.864;2023-04-24T08:49:57;3.88;;;3.00;;
11141;SDS011;5625;50.122;19.864;2023-04-24T08:52:25;4.95;;;3.05;;
11141;SDS011;5625;50.122;19.864;2023-04-24T08:54:54;7.30;;;3.00;;
11141;SDS011;5625;50.122;19.864;2023-04-24T08:57:23;4.50;;;2.97;;
11141;SDS011;5625;50.122;19.864;2023-04-24T08:59:53;3.05;;;2.72;;
11141;SDS011;5625;50.122;19.864;2023-04-24T09:02:23;5.93;;;2.72;;
11141;SDS011;5625;50.122;19.864;2023-04-24T09:04:53;7.53;;;3.30;;
11141;SDS011;5625;50.122;19.864;2023-04-24T09:07:24;4.97;;;3.00;;
11141;SDS011;5625;50.122;19.864;2023-04-24T09:09:52;6.15;;;2.85;;
11141;SDS011;5625;50.122;19.864;2023-04-24T09:12:21;4.05;;;2.70;;
11141;SDS011;5625;50.122;19.864;2023-04-24T09:14:51;4.95;;;2.97;;
11141;SDS011;5625;50.122;19.864;2023-04-24T09:17:21;5.22;;;2.80;;
11141;SDS011;5625;50.122;19.864;2023-04-24T09:19:49;6.78;;;3.35;;
11141;SDS011;5625;50.122;19.864;2023-04-24T09:22:19;4.47;;;2.75;;
11141;SDS011;5625;50.122;19.864;2023-04-24T09:24:48;5.40;;;2.70;;
11141;SDS011;5625;50.122;19.864;2023-04-24T09:27:27;8.07;;;2.92;;
11141;SDS011;5625;50.122;19.864;2023-04-24T09:29:56;5.03;;;2.65;;
11141;SDS011;5625;50.122;19.864;2023-04-24T09:32:25;5.68;;;2.63;;
11141;SDS011;5625;50.122;19.864;2023-04-24T09:35:07;3.85;;;3.13;;
11141;SDS011;5625;50.122;19.864;2023-04-24T09:37:39;6.15;;;3.03;;
11141;SDS011;5625;50.122;19.864;2023-04-24T09:40:12;5.63;;;2.78;;
11141;SDS011;5625;50.122;19.864;2023-04-24T09:42:45;4.97;;;2.95;;
11141;SDS011;5625;50.122;19.864;2023-04-24T09:45:14;4.93;;;2.90;;
11141;SDS011;5625;50.122;19.864;2023-04-24T09:47:44;6.65;;;2.80;;
11141;SDS011;5625;50.122;19.864;2023-04-24T09:50:13;5.40;;;2.80;;
11141;SDS011;5625;50.122;19.864;2023-04-24T09:52:45;2.70;;;2.50;;
11141;SDS011;5625;50.122;19.864;2023-04-24T09:55:16;4.22;;;2.72;;
11141;SDS011;5625;50.122;19.864;2023-04-24T09:57:47;2.78;;;2.58;;
11141;SDS011;5625;50.122;19.864;2023-04-24T10:00:20;3.10;;;2.30;;
11141;SDS011;5625;50.122;19.864;2023-04-24T10:02:50;3.65;;;2.10;;
11141;SDS011;5625;50.122;19.864;2023-04-24T10:05:27;2.55;;;1.92;;
11141;SDS011;5625;50.122;19.864;2023-04-24T10:07:57;2.38;;;1.98;;
11141;SDS011;5625;50.122;19.864;2023-04-24T10:10:29;2.92;;;2.33;;
11141;SDS011;5625;50.122;19.864;2023-04-24T10:12:57;3.47;;;2.30;;
11141;SDS011;5625;50.122;19.864;2023-04-24T10:15:28;3.55;;;2.30;;
11141;SDS011;5625;50.122;19.864;2023-04-24T10:17:57;3.78;;;2.10;;
11141;SDS011;5625;50.122;19.864;2023-04-24T10:20:27;9.13;;;2.60;;
11141;SDS011;5625;50.122;19.864;2023-04-24T10:22:58;7.05;;;2.47;;
11141;SDS011;5625;50.122;19.864;2023-04-24T10:25:27;3.85;;;2.42;;
11141;SDS011;5625;50.122;19.864;2023-04-24T10:27:58;2.33;;;2.20;;
11141;SDS011;5625;50.122;19.864;2023-04-24T10:30:27;2.40;;;2.20;;
11141;SDS011;5625;50.122;19.864;2023-04-24T10:32:56;3.00;;;1.98;;
11141;SDS011;5625;50.122;19.864;2023-04-24T10:35:24;2.40;;;2.20;;
11141;SDS011;5625;50.122;19.864;2023-04-24T10:37:54;6.20;;;2.50;;
11141;SDS011;5625;50.122;19.864;2023-04-24T10:40:27;3.28;;;2.10;;
11141;SDS011;5625;50.122;19.864;2023-04-24T10:42:59;2.25;;;2.10;;
11141;SDS011;5625;50.122;19.864;2023-04-24T10:45:29;4.35;;;2.38;;
11141;SDS011;5625;50.122;19.864;2023-04-24T10:47:57;2.50;;;2.30;;
11141;SDS011;5625;50.122;19.864;2023-04-24T10:50:41;4.72;;;2.55;;
11141;SDS011;5625;50.122;19.864;2023-04-24T10:53:16;2.58;;;2.38;;
11141;SDS011;5625;50.122;19.864;2023-04-24T10:55:46;4.43;;;2.60;;
11141;SDS011;5625;50.122;19.864;2023-04-24T10:58:15;2.50;;;2.30;;
11141;SDS011;5625;50.122;19.864;2023-04-24T11:00:44;3.45;;;2.25;;
11141;SDS011;5625;50.122;19.864;2023-04-24T11:03:23;2.20;;;2.00;;
11141;SDS011;5625;50.122;19.864;2023-04-24T11:05:55;3.15;;;2.30;;
11141;SDS011;5625;50.122;19.864;2023-04-24T11:08:27;5.93;;;1.88;;
11141;SDS011;5625;50.122;19.864;2023-04-24T11:11:00;5.43;;;2.25;;
11141;SDS011;5625;50.122;19.864;2023-04-24T11:16:37;4.32;;;2.28;;
11141;SDS011;5625;50.122;19.864;2023-04-24T11:19:23;2.22;;;2.00;;
11141;SDS011;5625;50.122;19.864;2023-04-24T11:21:57;4.32;;;2.30;;
11141;SDS011;5625;50.122;19.864;2023-04-24T11:24:29;2.75;;;2.45;;
11141;SDS011;5625;50.122;19.864;2023-04-24T11:26:59;2.50;;;2.30;;
11141;SDS011;5625;50.122;19.864;2023-04-24T11:29:42;2.20;;;2.00;;
11141;SDS011;5625;50.122;19.864;2023-04-24T11:32:19;5.40;;;2.60;;
11141;SDS011;5625;50.122;19.864;2023-04-24T11:34:55;2.50;;;2.30;;
11141;SDS011;5625;50.122;19.864;2023-04-24T11:37:24;4.50;;;2.30;;
11141;SDS011;5625;50.122;19.864;2023-04-24T11:39:57;2.60;;;2.40;;
11141;SDS011;5625;50.122;19.864;2023-04-24T11:42:26;3.95;;;2.47;;
11141;SDS011;5625;50.122;19.864;2023-04-24T11:44:55;2.55;;;2.20;;
11141;SDS011;5625;50.122;19.864;2023-04-24T11:47:27;2.30;;;2.20;;
11141;SDS011;5625;50.122;19.864;2023-04-24T11:49:57;2.53;;;2.33;;
11141;SDS011;5625;50.122;19.864;2023-04-24T11:52:27;2.45;;;2.25;;
11141;SDS011;5625;50.122;19.864;2023-04-24T11:54:59;4.10;;;2.78;;
11141;SDS011;5625;50.122;19.864;2023-04-24T11:57:28;2.35;;;2.15;;
11141;SDS011;5625;50.122;19.864;2023-04-24T12:00:00;4.57;;;2.20;;
11141;SDS011;5625;50.122;19.864;2023-04-24T12:02:30;3.45;;;2.55;;
11141;SDS011;5625;50.122;19.864;2023-04-24T12:04:59;3.75;;;2.17;;
11141;SDS011;5625;50.122;19.864;2023-04-24T12:07:27;3.35;;;2.40;;
11141;SDS011;5625;50.122;19.864;2023-04-24T12:09:56;2.83;;;2.50;;
11141;SDS011;5625;50.122;19.864;2023-04-24T12:12:27;4.10;;;2.90;;
11141;SDS011;5625;50.122;19.864;2023-04-24T12:14:55;4.07;;;2.35;;
11141;SDS011;5625;50.122;19.864;2023-04-24T12:17:26;11.07;;;2.60;;
11141;SDS011;5625;50.122;19.864;2023-04-24T12:19:58;5.25;;;2.53;;
11141;SDS011;5625;50.122;19.864;2023-04-24T12:22:28;3.42;;;2.25;;
11141;SDS011;5625;50.122;19.864;2023-04-24T12:25:13;3.67;;;2.53;;
11141;SDS011;5625;50.122;19.864;2023-04-24T12:27:44;2.90;;;2.60;;
11141;SDS011;5625;50.122;19.864;2023-04-24T12:30:13;4.22;;;2.88;;
11141;SDS011;5625;50.122;19.864;2023-04-24T12:32:42;2.35;;;2.15;;
11141;SDS011;5625;50.122;19.864;2023-04-24T12:35:11;6.50;;;2.55;;
11141;SDS011;5625;50.122;19.864;2023-04-24T12:37:41;3.25;;;2.22;;
11141;SDS011;5625;50.122;19.864;2023-04-24T12:40:15;2.70;;;2.40;;
11141;SDS011;5625;50.122;19.864;2023-04-24T12:42:44;2.90;;;2.45;;
11141;SDS011;5625;50.122;19.864;2023-04-24T12:45:13;7.25;;;3.15;;
11141;SDS011;5625;50.122;19.864;2023-04-24T12:47:42;5.47;;;2.90;;
11141;SDS011;5625;50.122;19.864;2023-04-24T12:50:12;5.25;;;3.55;;
11141;SDS011;5625;50.122;19.864;2023-04-24T12:52:41;4.60;;;3.55;;
11141;SDS011;5625;50.122;19.864;2023-04-24T12:55:10;3.58;;;3.28;;
11141;SDS011;5625;50.122;19.864;2023-04-24T12:57:40;4.70;;;3.28;;
11141;SDS011;5625;50.122;19.864;2023-04-24T13:00:08;3.70;;;3.00;;
11141;SDS011;5625;50.122;19.864;2023-04-24T13:02:36;3.38;;;3.08;;
11141;SDS011;5625;50.122;19.864;2023-04-24T13:05:05;5.85;;;3.40;;
11141;SDS011;5625;50.122;19.864;2023-04-24T13:07:34;3.75;;;3.35;;
11141;SDS011;5625;50.122;19.864;2023-04-24T13:10:02;4.63;;;3.10;;
11141;SDS011;5625;50.122;19.864;2023-04-24T13:12:30;8.98;;;3.10;;
11141;SDS011;5625;50.122;19.864;2023-04-24T13:15:00;5.60;;;3.55;;
11141;SDS011;5625;50.122;19.864;2023-04-24T13:17:28;3.42;;;3.13;;
11141;SDS011;5625;50.122;19.864;2023-04-24T13:19:56;5.35;;;3.20;;
11141;SDS011;5625;50.122;19.864;2023-04-24T13:22:24;3.35;;;3.05;;
11141;SDS011;5625;50.122;19.864;2023-04-24T13:24:53;3.75;;;3.45;;
11141;SDS011;5625;50.122;19.864;2023-04-24T13:27:23;4.80;;;3.53;;
11141;SDS011;5625;50.122;19.864;2023-04-24T13:29:51;3.40;;;3.10;;
11141;SDS011;5625;50.122;19.864;2023-04-24T13:32:20;3.85;;;3.33;;
11141;SDS011;5625;50.122;19.864;2023-04-24T13:34:48;3.85;;;3.45;;
11141;SDS011;5625;50.122;19.864;2023-04-24T13:37:16;3.10;;;2.90;;
11141;SDS011;5625;50.122;19.864;2023-04-24T13:39:44;3.75;;;2.95;;
11141;SDS011;5625;50.122;19.864;2023-04-24T13:42:12;11.35;;;4.53;;
11141;SDS011;5625;50.122;19.864;2023-04-24T13:44:41;4.07;;;3.40;;
11141;SDS011;5625;50.122;19.864;2023-04-24T13:47:09;6.03;;;3.38;;
11141;SDS011;5625;50.122;19.864;2023-04-24T13:49:38;3.53;;;2.95;;
11141;SDS011;5625;50.122;19.864;2023-04-24T13:52:07;4.07;;;3.17;;
11141;SDS011;5625;50.122;19.864;2023-04-24T13:54:36;4.00;;;3.17;;
11141;SDS011;5625;50.122;19.864;2023-04-24T13:57:04;3.05;;;2.78;;
11141;SDS011;5625;50.122;19.864;2023-04-24T13:59:32;3.20;;;2.80;;
11141;SDS011;5625;50.122;19.864;2023-04-24T14:02:02;4.37;;;2.90;;
11141;SDS011;5625;50.122;19.864;2023-04-24T14:04:30;4.97;;;3.10;;
11141;SDS011;5625;50.122;19.864;2023-04-24T14:07:00;3.63;;;3.07;;
11141;SDS011;5625;50.122;19.864;2023-04-24T14:09:28;4.97;;;3.03;;
11141;SDS011;5625;50.122;19.864;2023-04-24T14:11:56;4.87;;;3.17;;
11141;SDS011;5625;50.122;19.864;2023-04-24T14:14:24;3.30;;;3.00;;
11141;SDS011;5625;50.122;19.864;2023-04-24T14:16:55;3.00;;;2.70;;
11141;SDS011;5625;50.122;19.864;2023-04-24T14:19:24;3.10;;;2.90;;
11141;SDS011;5625;50.122;19.864;2023-04-24T14:21:52;3.10;;;2.80;;
11141;SDS011;5625;50.122;19.864;2023-04-24T14:24:23;4.17;;;2.50;;
11141;SDS011;5625;50.122;19.864;2023-04-24T14:26:51;2.70;;;2.50;;
11141;SDS011;5625;50.122;19.864;2023-04-24T14:29:19;3.50;;;2.50;;
11141;SDS011;5625;50.122;19.864;2023-04-24T14:31:47;5.47;;;2.40;;
11141;SDS011;5625;50.122;19.864;2023-04-24T14:34:18;3.40;;;2.10;;
11141;SDS011;5625;50.122;19.864;2023-04-24T14:36:46;2.07;;;1.90;;
11141;SDS011;5625;50.122;19.864;2023-04-24T14:39:16;2.53;;;2.00;;
11141;SDS011;5625;50.122;19.864;2023-04-24T14:41:45;2.57;;;2.07;;
11141;SDS011;5625;50.122;19.864;2023-04-24T14:44:13;2.93;;;2.00;;
11141;SDS011;5625;50.122;19.864;2023-04-24T14:46:44;4.50;;;2.30;;
11141;SDS011;5625;50.122;19.864;2023-04-24T14:49:12;2.80;;;1.93;;
11141;SDS011;5625;50.122;19.864;2023-04-24T14:51:41;2.03;;;1.80;;
11141;SDS011;5625;50.122;19.864;2023-04-24T14:54:09;5.00;;;2.17;;
11141;SDS011;5625;50.122;19.864;2023-04-24T14:56:37;3.20;;;1.80;;
11141;SDS011;5625;50.122;19.864;2023-04-24T14:59:08;3.23;;;1.90;;
11141;SDS011;5625;50.122;19.864;2023-04-24T15:01:36;2.07;;;1.90;;